Time;durP1;ratioP1;P1;durP2;ratioP2;P2;SDS_P1;SDS_P2;PMS_P1;PMS_P2;Temp;Humidity;BMP_temperature;BMP_pressure;BME280_temperature;BME280_humidity;BME280_pressure;Samples;Min_cycle;Max_cycle;Signal;HPM_P1;HPM_P2
2021/11/17 02:28:04;;;;;;;98.00;34.58;;;8.40;99.90;;;;;;5071871;28;20032;-84
2021/11/17 02:30:45;;;;;;;103.50;35.33;;;8.40;99.90;;;;;;5057339;28;20048;-84
2021/11/17 02:33:34;;;;;;;94.18;33.88;;;8.40;99.90;;;;;;5042591;28;20025;-83
2021/11/17 02:36:28;;;;;;;99.20;33.40;;;8.40;99.90;;;;;;5047356;28;20040;-84
2021/11/17 02:39:12;;;;;;;105.75;35.75;;;8.40;99.90;;;;;;5045298;28;20104;-84
2021/11/17 02:42:03;;;;;;;97.00;35.20;;;8.40;99.90;;;;;;5053437;28;20065;-84
2021/11/17 02:44:54;;;;;;;100.22;33.70;;;8.40;99.90;;;;;;5035369;28;20033;-83
2021/11/17 02:47:33;;;;;;;96.97;32.90;;;8.40;99.90;;;;;;5041649;28;20025;-84
2021/11/17 02:50:12;;;;;;;106.57;34.10;;;8.40;99.90;;;;;;5053885;28;20027;-83
2021/11/17 02:52:53;;;;;;;96.20;33.13;;;8.40;99.90;;;;;;5054317;28;20112;-84
2021/11/17 02:55:43;;;;;;;91.45;31.20;;;8.40;99.90;;;;;;5053855;28;20021;-83
2021/11/17 02:58:23;;;;;;;91.65;30.98;;;8.40;99.90;;;;;;5065053;28;20035;-84
2021/11/17 03:01:27;;;;;;;98.72;32.65;;;8.40;99.90;;;;;;5067050;28;20037;-84
2021/11/17 03:03:59;;;;;;;99.60;33.08;;;8.40;99.90;;;;;;5048644;28;20041;-84
2021/11/17 03:06:53;;;;;;;93.32;30.88;;;8.40;99.90;;;;;;5051902;28;20123;-83
2021/11/17 03:09:38;;;;;;;95.47;33.10;;;8.40;99.90;;;;;;5023583;28;20116;-84
2021/11/17 03:12:22;;;;;;;96.05;31.88;;;8.30;99.90;;;;;;5047520;28;20031;-84
2021/11/17 03:15:16;;;;;;;96.15;32.85;;;8.30;99.90;;;;;;5065121;28;20039;-83
2021/11/17 03:17:57;;;;;;;102.88;32.20;;;8.40;99.90;;;;;;5060911;28;20047;-84
2021/11/17 03:20:41;;;;;;;100.57;32.00;;;8.40;99.90;;;;;;5054406;28;20067;-84
2021/11/17 03:23:28;;;;;;;100.15;32.13;;;8.40;99.90;;;;;;5055396;28;20485;-84
2021/11/17 03:26:20;;;;;;;94.68;31.92;;;8.40;99.90;;;;;;5047494;28;20029;-84
2021/11/17 03:29:20;;;;;;;102.43;33.78;;;8.40;99.90;;;;;;5075545;28;20045;-84
2021/11/17 03:31:55;;;;;;;105.03;33.40;;;8.40;99.90;;;;;;5020484;28;20120;-84
2021/11/17 03:34:42;;;;;;;100.20;30.42;;;8.40;99.90;;;;;;5049488;28;20021;-83
2021/11/17 03:37:14;;;;;;;101.32;32.10;;;8.50;99.90;;;;;;5050706;28;20017;-85
2021/11/17 03:39:51;;;;;;;95.75;33.10;;;8.40;99.90;;;;;;5063359;28;20611;-84
2021/11/17 03:42:30;;;;;;;98.80;31.83;;;8.40;99.90;;;;;;5057124;28;20031;-84
2021/11/17 03:45:21;;;;;;;92.18;31.23;;;8.40;99.90;;;;;;5067942;28;20024;-84
2021/11/17 03:48:05;;;;;;;98.10;32.05;;;8.40;99.90;;;;;;5051728;28;20507;-85
2021/11/17 03:50:49;;;;;;;94.97;30.90;;;8.40;99.90;;;;;;5053658;28;20518;-84
2021/11/17 03:53:50;;;;;;;91.78;31.38;;;8.50;99.90;;;;;;5045865;28;20048;-84
2021/11/17 03:56:37;;;;;;;94.45;32.95;;;8.40;99.90;;;;;;5070406;28;20046;-84
2021/11/17 03:59:03;;;;;;;90.75;30.88;;;8.40;99.90;;;;;;5040854;28;20056;-85
2021/11/17 04:01:34;;;;;;;100.90;33.90;;;8.40;99.90;;;;;;5042163;28;20068;-84
2021/11/17 04:04:09;;;;;;;99.33;33.17;;;8.30;99.90;;;;;;5064731;28;20025;-84
2021/11/17 04:06:47;;;;;;;103.80;33.85;;;8.40;99.90;;;;;;5053054;28;20314;-84
2021/11/17 04:09:25;;;;;;;102.45;33.50;;;8.40;99.90;;;;;;5053148;28;20021;-85
2021/11/17 04:12:11;;;;;;;100.80;34.50;;;8.40;99.90;;;;;;5052681;28;20060;-84
2021/11/17 04:15:05;;;;;;;97.65;35.60;;;8.30;99.90;;;;;;5054243;28;20036;-84
2021/11/17 04:17:49;;;;;;;105.03;34.35;;;8.30;99.90;;;;;;5042745;28;20024;-84
2021/11/17 04:20:20;;;;;;;95.88;33.65;;;8.30;99.90;;;;;;5053625;28;20033;-84
2021/11/17 04:23:09;;;;;;;90.45;32.10;;;8.20;99.90;;;;;;5051133;28;20036;-82
2021/11/17 04:25:53;;;;;;;93.95;32.22;;;8.20;99.90;;;;;;5037726;28;20122;-83
2021/11/17 04:28:22;;;;;;;92.55;32.00;;;8.20;99.90;;;;;;5052032;28;20021;-85
2021/11/17 04:30:47;;;;;;;96.13;34.25;;;8.20;99.90;;;;;;5037535;28;20813;-84
2021/11/17 04:33:33;;;;;;;97.90;31.92;;;8.20;99.90;;;;;;5042436;28;20065;-84
2021/11/17 04:36:06;;;;;;;99.70;32.10;;;8.20;99.90;;;;;;5047046;28;20087;-85
2021/11/17 04:38:34;;;;;;;98.95;33.45;;;8.20;99.90;;;;;;5061993;28;20032;-84
2021/11/17 04:41:33;;;;;;;92.50;32.28;;;8.20;99.90;;;;;;5038820;28;20051;-84
2021/11/17 04:44:04;;;;;;;96.53;31.63;;;8.30;99.90;;;;;;5055226;28;20017;-85
2021/11/17 04:47:04;;;;;;;87.40;32.00;;;8.30;99.90;;;;;;5047914;28;20030;-84
2021/11/17 04:49:48;;;;;;;86.50;31.55;;;8.30;99.90;;;;;;5054258;28;20024;-84
2021/11/17 04:52:26;;;;;;;90.45;32.08;;;8.30;99.90;;;;;;5071368;28;20020;-84
2021/11/17 04:55:06;;;;;;;94.20;32.47;;;8.30;99.90;;;;;;5042798;28;20032;-82
2021/11/17 04:57:44;;;;;;;92.55;31.80;;;8.30;99.90;;;;;;5049758;28;20099;-83
2021/11/17 05:00:28;;;;;;;91.80;32.13;;;8.30;99.90;;;;;;5047976;28;20112;-84
2021/11/17 05:03:09;;;;;;;91.57;33.03;;;8.30;99.90;;;;;;5049245;28;20024;-84
2021/11/17 05:05:41;;;;;;;99.18;31.88;;;8.30;99.90;;;;;;5046725;28;20029;-84
2021/11/17 05:08:09;;;;;;;100.15;32.38;;;8.30;99.90;;;;;;5046462;28;20529;-85
2021/11/17 05:10:49;;;;;;;90.43;33.42;;;8.40;99.90;;;;;;5044963;28;20060;-82
2021/11/17 05:13:24;;;;;;;92.93;32.50;;;8.40;99.90;;;;;;5049103;28;20021;-83
2021/11/17 05:16:04;;;;;;;83.15;31.15;;;8.50;99.90;;;;;;5050915;28;20652;-85
2021/11/17 05:18:43;;;;;;;81.82;30.15;;;8.40;99.90;;;;;;5045962;28;20026;-84
2021/11/17 05:21:21;;;;;;;90.15;30.90;;;8.40;99.90;;;;;;5044441;28;20037;-82
2021/11/17 05:24:06;;;;;;;89.93;33.15;;;8.40;99.90;;;;;;5048582;28;20029;-84
2021/11/17 05:26:56;;;;;;;94.88;32.58;;;8.30;99.90;;;;;;5052547;28;20053;-85
2021/11/17 05:29:40;;;;;;;88.55;31.52;;;8.40;99.90;;;;;;5045651;28;20040;-84
2021/11/17 05:32:22;;;;;;;87.05;32.03;;;8.30;99.90;;;;;;5028834;28;20111;-84
2021/11/17 05:34:47;;;;;;;86.72;33.88;;;8.40;99.90;;;;;;5050318;28;20021;-85
2021/11/17 05:37:42;;;;;;;96.18;34.20;;;8.20;99.90;;;;;;5045929;28;20017;-84
2021/11/17 05:40:26;;;;;;;90.43;33.88;;;8.20;99.90;;;;;;5049286;28;20032;-84
2021/11/17 05:43:28;;;;;;;85.13;32.58;;;8.10;99.90;;;;;;5052800;28;20096;-84
2021/11/17 05:46:19;;;;;;;86.07;31.05;;;8.10;99.90;;;;;;5047803;28;20032;-84
2021/11/17 05:49:06;;;;;;;92.70;36.05;;;8.20;99.90;;;;;;5062886;28;20016;-84
2021/11/17 05:51:41;;;;;;;79.65;30.42;;;8.20;99.90;;;;;;5046791;28;20033;-84
2021/11/17 05:54:15;;;;;;;81.57;30.75;;;8.20;99.90;;;;;;5045088;28;20398;-84
2021/11/17 05:57:07;;;;;;;93.45;33.38;;;8.30;99.90;;;;;;5051616;28;20476;-84
2021/11/17 06:00:03;;;;;;;91.95;34.95;;;8.30;99.90;;;;;;5046738;28;20032;-84
2021/11/17 06:03:03;;;;;;;98.90;33.50;;;8.30;99.90;;;;;;5048361;28;20370;-84
2021/11/17 06:05:29;;;;;;;89.88;34.28;;;8.40;99.90;;;;;;5042203;28;20017;-84
2021/11/17 06:07:55;;;;;;;92.93;36.58;;;8.40;99.90;;;;;;5043767;28;20029;-84
2021/11/17 06:10:29;;;;;;;90.22;33.60;;;8.40;99.90;;;;;;5047184;28;20021;-82
2021/11/17 06:12:56;;;;;;;86.65;31.58;;;8.40;99.90;;;;;;5052558;28;20020;-83
2021/11/17 06:15:23;;;;;;;101.68;34.92;;;8.50;99.90;;;;;;5049219;28;20587;-84
2021/11/17 06:17:52;;;;;;;86.03;32.38;;;8.50;99.90;;;;;;5047503;28;20032;-83
2021/11/17 06:20:20;;;;;;;95.68;33.33;;;8.50;99.90;;;;;;5055947;28;20026;-84
2021/11/17 06:22:49;;;;;;;87.13;34.58;;;8.50;99.90;;;;;;5049455;28;20044;-84
2021/11/17 06:25:17;;;;;;;92.95;34.53;;;8.50;99.90;;;;;;5046202;28;20500;-84
2021/11/17 06:27:46;;;;;;;92.70;34.33;;;8.50;99.90;;;;;;5048723;28;20018;-84
2021/11/17 06:30:15;;;;;;;87.18;32.15;;;8.60;99.90;;;;;;5046891;28;20033;-83
2021/11/17 06:32:41;;;;;;;81.90;32.40;;;8.60;99.90;;;;;;5051688;28;20062;-83
2021/11/17 06:35:08;;;;;;;97.65;34.78;;;8.60;99.90;;;;;;5052621;28;20033;-84
2021/11/17 06:37:34;;;;;;;90.20;33.65;;;8.50;99.90;;;;;;5047276;28;20025;-84
2021/11/17 06:40:02;;;;;;;82.75;32.78;;;8.50;99.90;;;;;;5047751;28;20079;-84
2021/11/17 06:42:35;;;;;;;96.53;34.72;;;8.50;99.90;;;;;;5043595;28;20036;-84
2021/11/17 06:45:08;;;;;;;88.40;32.20;;;8.60;99.90;;;;;;5047839;28;20551;-83
2021/11/17 06:47:33;;;;;;;90.30;34.65;;;8.60;99.90;;;;;;5040617;28;20100;-83
2021/11/17 06:49:59;;;;;;;85.20;33.50;;;8.60;99.90;;;;;;5047217;28;20481;-83
2021/11/17 06:52:25;;;;;;;94.97;34.35;;;8.60;99.90;;;;;;5049340;28;20121;-84
2021/11/17 06:54:51;;;;;;;87.43;33.65;;;8.60;99.90;;;;;;5048102;28;20458;-83
2021/11/17 06:57:20;;;;;;;83.70;32.47;;;8.60;99.90;;;;;;5048136;28;20149;-83
2021/11/17 06:59:46;;;;;;;86.70;32.58;;;8.70;99.90;;;;;;5048015;28;20087;-83
2021/11/17 07:02:12;;;;;;;100.47;34.80;;;8.60;99.90;;;;;;5040116;28;20120;-84
2021/11/17 07:04:38;;;;;;;89.28;32.88;;;8.60;99.90;;;;;;5067353;28;20108;-83
2021/11/17 07:07:06;;;;;;;95.75;33.40;;;8.60;99.90;;;;;;5059036;28;20482;-83
2021/11/17 07:09:32;;;;;;;98.63;34.40;;;8.70;99.90;;;;;;5063046;28;20029;-84
2021/11/17 07:11:58;;;;;;;92.70;34.63;;;8.70;99.90;;;;;;5053932;28;20036;-83
2021/11/17 07:14:23;;;;;;;92.57;34.75;;;8.70;99.90;;;;;;5050967;28;20601;-83
2021/11/17 07:16:51;;;;;;;98.32;35.00;;;8.70;99.90;;;;;;5054462;28;20027;-83
2021/11/17 07:19:24;;;;;;;97.97;34.38;;;8.70;99.90;;;;;;5054190;28;20017;-83
2021/11/17 07:21:54;;;;;;;91.32;34.30;;;8.80;99.90;;;;;;5051080;28;20037;-82
2021/11/17 07:24:21;;;;;;;148.65;40.72;;;8.80;99.90;;;;;;5061623;28;20046;-82
2021/11/17 07:26:47;;;;;;;110.50;37.90;;;8.80;99.90;;;;;;5065206;28;20070;-83
2021/11/17 07:29:12;;;;;;;112.85;42.83;;;8.80;99.90;;;;;;5053452;28;20048;-83
2021/11/17 07:31:39;;;;;;;109.60;35.05;;;8.80;99.90;;;;;;5047889;28;20470;-83
2021/11/17 07:34:05;;;;;;;101.95;35.03;;;8.80;99.90;;;;;;5052202;28;20602;-83
2021/11/17 07:36:31;;;;;;;131.07;39.80;;;8.80;99.90;;;;;;5051103;28;20029;-82
2021/11/17 07:38:57;;;;;;;114.55;36.25;;;8.90;99.90;;;;;;5051645;28;20090;-82
2021/11/17 07:41:23;;;;;;;120.15;36.15;;;8.90;99.90;;;;;;5051033;28;20025;-82
2021/11/17 07:43:48;;;;;;;104.95;35.88;;;8.80;99.90;;;;;;5051830;28;20529;-82
2021/11/17 07:46:14;;;;;;;137.15;39.40;;;8.80;99.90;;;;;;5053496;28;20032;-82
2021/11/17 07:48:40;;;;;;;109.35;36.78;;;8.80;99.90;;;;;;5055234;28;20496;-82
2021/11/17 07:51:06;;;;;;;119.82;36.80;;;8.80;99.90;;;;;;5063592;28;20025;-82
2021/11/17 07:53:33;;;;;;;126.65;39.30;;;8.80;99.90;;;;;;5052471;28;20013;-82
2021/11/17 07:56:01;;;;;;;106.32;37.47;;;8.80;99.90;;;;;;5050097;28;20036;-82
2021/11/17 07:58:30;;;;;;;134.80;37.72;;;8.90;99.90;;;;;;5048166;28;20079;-82
2021/11/17 08:00:58;;;;;;;118.28;36.10;;;8.80;99.90;;;;;;5066254;28;20397;-83
2021/11/17 08:03:30;;;;;;;124.15;37.25;;;8.90;99.90;;;;;;5043072;28;20350;-83
2021/11/17 08:05:57;;;;;;;133.15;37.67;;;8.80;99.90;;;;;;5045859;28;20432;-83
2021/11/17 08:08:24;;;;;;;118.50;37.08;;;8.80;99.90;;;;;;5046030;28;20025;-82
2021/11/17 08:10:51;;;;;;;91.13;33.17;;;8.80;99.90;;;;;;5050702;28;20035;-83
2021/11/17 08:13:17;;;;;;;126.18;36.15;;;8.90;99.90;;;;;;5050729;28;20028;-84
2021/11/17 08:15:43;;;;;;;116.40;35.30;;;8.80;99.90;;;;;;5046094;28;20017;-84
2021/11/17 08:18:09;;;;;;;118.65;35.55;;;8.80;99.90;;;;;;5054710;28;20025;-84
2021/11/17 08:20:36;;;;;;;110.18;35.28;;;8.90;99.90;;;;;;5071987;28;20040;-85
2021/11/17 08:23:03;;;;;;;115.30;35.45;;;8.90;99.90;;;;;;5058840;28;20017;-84
2021/11/17 08:25:32;;;;;;;122.28;34.65;;;8.90;99.90;;;;;;5054696;28;20473;-86
2021/11/17 08:27:59;;;;;;;105.15;35.40;;;8.90;99.90;;;;;;5050663;28;20020;-84
2021/11/17 08:30:29;;;;;;;98.07;32.75;;;9.00;99.90;;;;;;5059099;28;20029;-84
2021/11/17 08:32:55;;;;;;;115.55;37.00;;;9.00;99.90;;;;;;5058228;28;20390;-83
2021/11/17 08:35:25;;;;;;;113.57;36.17;;;8.90;99.90;;;;;;5055676;28;20377;-85
2021/11/17 08:37:53;;;;;;;106.82;35.15;;;9.00;99.90;;;;;;5057511;28;20515;-85
2021/11/17 08:40:22;;;;;;;141.93;41.42;;;9.00;99.90;;;;;;5073661;28;20025;-85
2021/11/17 08:42:48;;;;;;;115.45;36.38;;;9.00;99.90;;;;;;5056209;28;20100;-86
2021/11/17 08:45:16;;;;;;;114.03;35.80;;;9.00;99.90;;;;;;5054922;28;20112;-86
2021/11/17 08:47:43;;;;;;;138.05;38.78;;;9.00;99.90;;;;;;5055849;28;20052;-85
2021/11/17 08:50:12;;;;;;;133.02;38.90;;;9.00;99.90;;;;;;5066007;28;20024;-85
2021/11/17 08:52:38;;;;;;;143.18;38.90;;;9.10;99.90;;;;;;5047236;28;20025;-86
2021/11/17 08:55:05;;;;;;;114.00;36.10;;;9.10;99.90;;;;;;5054215;28;20017;-84
2021/11/17 08:57:31;;;;;;;127.63;36.83;;;9.20;99.90;;;;;;5043351;28;20033;-86
2021/11/17 08:59:57;;;;;;;122.80;36.38;;;9.20;99.90;;;;;;5049201;28;20029;-87
2021/11/17 09:02:23;;;;;;;124.38;37.42;;;9.20;99.90;;;;;;5055008;28;20366;-86
2021/11/17 09:04:48;;;;;;;126.47;37.97;;;9.30;99.90;;;;;;5055771;28;20077;-85
2021/11/17 09:07:14;;;;;;;143.32;38.97;;;9.40;99.90;;;;;;5048886;28;20025;-86
2021/11/17 09:09:41;;;;;;;137.52;39.47;;;9.30;99.90;;;;;;5050931;28;20032;-85
2021/11/17 09:12:07;;;;;;;143.35;39.33;;;9.30;99.90;;;;;;5048860;28;20036;-85
2021/11/17 09:14:33;;;;;;;165.77;42.53;;;9.40;99.90;;;;;;5051403;28;20123;-84
2021/11/17 09:16:59;;;;;;;150.43;40.05;;;9.30;99.90;;;;;;5053446;28;20042;-86
2021/11/17 09:19:25;;;;;;;153.02;39.67;;;9.40;99.90;;;;;;5050383;28;20471;-84
2021/11/17 09:21:51;;;;;;;166.32;42.85;;;9.40;99.90;;;;;;5047729;28;20046;-85
2021/11/17 09:24:19;;;;;;;180.50;43.10;;;9.40;99.90;;;;;;5049648;28;20009;-86
2021/11/17 09:26:50;;;;;;;163.70;42.67;;;9.50;99.90;;;;;;5051863;28;20027;-85
2021/11/17 09:29:16;;;;;;;184.93;44.83;;;9.50;99.90;;;;;;5055658;28;20108;-86
2021/11/17 09:31:45;;;;;;;151.18;41.70;;;9.50;99.90;;;;;;5050109;28;20176;-86
2021/11/17 09:34:12;;;;;;;182.68;43.00;;;9.50;99.90;;;;;;5053868;28;20362;-86
2021/11/17 09:36:38;;;;;;;196.52;45.88;;;9.50;99.90;;;;;;5047376;28;20538;-86
2021/11/17 09:39:09;;;;;;;258.63;53.72;;;9.50;99.90;;;;;;5047603;28;20028;-85
2021/11/17 09:41:42;;;;;;;186.70;46.67;;;9.50;99.90;;;;;;5047380;28;20076;-85
2021/11/17 09:44:28;;;;;;;153.85;41.80;;;9.50;99.90;;;;;;5047674;28;20029;-83
2021/11/17 09:46:56;;;;;;;188.05;47.60;;;9.60;99.90;;;;;;5052090;28;20025;-83
2021/11/17 09:49:31;;;;;;;221.35;51.67;;;9.70;99.90;;;;;;5047288;28;20017;-85
2021/11/17 09:52:02;;;;;;;212.20;47.47;;;9.60;99.90;;;;;;5048509;28;20017;-85
2021/11/17 09:54:54;;;;;;;205.90;49.35;;;9.60;99.90;;;;;;5050225;28;20512;-85
2021/11/17 09:57:24;;;;;;;220.73;51.53;;;9.70;99.90;;;;;;5047489;28;20024;-83
2021/11/17 10:00:12;;;;;;;203.15;47.45;;;9.70;99.90;;;;;;5048196;28;20078;-85
2021/11/17 10:03:04;;;;;;;249.32;55.38;;;9.70;99.90;;;;;;5047367;28;20045;-85
2021/11/17 10:08:38;;;;;;;225.13;49.38;;;9.90;99.90;;;;;;5048122;28;20065;-85
2021/11/17 10:14:28;;;;;;;275.77;55.55;;;9.90;99.90;;;;;;5023506;28;20034;-86
2021/11/17 10:16:55;;;;;;;294.27;58.20;;;9.90;99.90;;;;;;5026586;28;20120;-86
2021/11/17 10:19:33;;;;;;;235.38;51.17;;;10.00;99.90;;;;;;5029345;28;20041;-86
2021/11/17 10:22:12;;;;;;;261.30;57.47;;;10.00;99.90;;;;;;5051857;28;20033;-86
2021/11/17 10:24:51;;;;;;;219.27;50.38;;;10.00;99.90;;;;;;5055043;28;20025;-85
2021/11/17 10:27:30;;;;;;;244.43;52.33;;;10.10;99.90;;;;;;5041059;28;20025;-86
2021/11/17 10:30:15;;;;;;;243.05;52.17;;;10.10;99.90;;;;;;5049724;28;20025;-85
2021/11/17 10:33:08;;;;;;;208.20;47.10;;;10.10;99.90;;;;;;5043185;28;20033;-84
2021/11/17 10:35:42;;;;;;;;;;;10.20;99.90;;;;;;5052188;28;20044;-83
2021/11/17 10:38:10;;;;;;;239.95;52.28;;;10.20;99.90;;;;;;5044781;28;19913;-84
2021/11/17 10:41:16;;;;;;;174.70;44.75;;;10.20;99.90;;;;;;5048019;28;20037;-82
2021/11/17 10:43:57;;;;;;;219.98;51.90;;;10.30;99.90;;;;;;5053148;28;20409;-82
2021/11/17 10:46:53;;;;;;;224.45;51.10;;;10.30;99.90;;;;;;5046932;28;20035;-81
2021/11/17 10:49:25;;;;;;;232.90;50.92;;;10.30;99.90;;;;;;5044362;28;20235;-80
2021/11/17 10:52:01;;;;;;;236.25;52.15;;;10.30;99.90;;;;;;5043471;28;20021;-83
2021/11/17 10:54:29;;;;;;;230.57;48.70;;;10.30;99.90;;;;;;5039112;28;20039;-82
2021/11/17 10:57:29;;;;;;;239.95;56.08;;;10.30;99.90;;;;;;5045709;28;20027;-88
2021/11/17 10:59:57;;;;;;;243.75;52.95;;;10.40;99.90;;;;;;5039744;28;20035;-87
2021/11/17 11:02:24;;;;;;;198.55;47.33;;;10.40;99.90;;;;;;5043606;28;20381;-84
2021/11/17 11:05:04;;;;;;;221.45;52.50;;;10.50;99.90;;;;;;5050550;28;20070;-84
2021/11/17 11:07:39;;;;;;;206.73;49.75;;;10.50;99.90;;;;;;5044692;28;20117;-85
2021/11/17 11:10:48;;;;;;;213.60;48.10;;;10.50;99.90;;;;;;5045453;28;20024;-83
2021/11/17 11:13:40;;;;;;;192.02;47.08;;;10.60;99.90;;;;;;5025181;28;20022;-83
2021/11/17 11:16:17;;;;;;;206.98;47.13;;;10.60;99.90;;;;;;5045840;28;20457;-83
2021/11/17 11:19:10;;;;;;;208.02;47.42;;;10.60;99.90;;;;;;5049786;28;20070;-83
2021/11/17 11:21:41;;;;;;;209.23;49.20;;;10.60;99.90;;;;;;5044489;28;20033;-82
2021/11/17 11:24:13;;;;;;;172.88;45.53;;;10.60;99.90;;;;;;5044026;28;20159;-83
2021/11/17 11:26:59;;;;;;;211.50;49.65;;;10.60;99.90;;;;;;5051433;28;20032;-81
2021/11/17 11:29:29;;;;;;;182.98;47.63;;;10.60;99.90;;;;;;5053733;28;20077;-84
2021/11/17 11:32:19;;;;;;;185.15;47.58;;;10.70;99.90;;;;;;5040647;28;20061;-82
2021/11/17 11:35:08;;;;;;;202.45;48.97;;;10.70;99.90;;;;;;5045907;28;20444;-82
2021/11/17 11:37:33;;;;;;;204.68;50.60;;;10.70;99.90;;;;;;5047667;28;20543;-82
2021/11/17 11:40:01;;;;;;;207.43;50.38;;;10.70;99.90;;;;;;5051662;28;20029;-81
2021/11/17 11:42:32;;;;;;;206.60;51.05;;;10.70;99.90;;;;;;5052810;28;20029;-82
2021/11/17 11:45:21;;;;;;;203.93;52.97;;;10.70;99.90;;;;;;5033771;28;20052;-82
2021/11/17 11:47:51;;;;;;;198.23;49.90;;;10.70;99.90;;;;;;5043245;28;20017;-82
2021/11/17 11:50:33;;;;;;;205.60;49.95;;;10.80;99.90;;;;;;5065722;28;20052;-81
2021/11/17 11:53:26;;;;;;;209.52;51.78;;;10.80;99.90;;;;;;5051279;28;20522;-82
2021/11/17 11:55:52;;;;;;;201.45;50.33;;;10.70;99.90;;;;;;5049119;28;20081;-82
2021/11/17 11:58:20;;;;;;;192.00;50.13;;;10.70;99.90;;;;;;5050612;28;20033;-82
2021/11/17 12:01:16;;;;;;;187.35;48.25;;;10.70;99.90;;;;;;5051294;28;20404;-83
2021/11/17 12:03:56;;;;;;;184.60;48.50;;;10.80;99.90;;;;;;5050354;28;20025;-81
2021/11/17 12:06:52;;;;;;;171.63;45.72;;;10.80;99.90;;;;;;5044619;28;20154;-81
2021/11/17 12:09:35;;;;;;;202.77;50.65;;;10.90;99.90;;;;;;5049375;28;20501;-82
2021/11/17 12:12:07;;;;;;;;;;;10.90;99.90;;;;;;5050194;28;20024;-82
2021/11/17 12:14:44;;;;;;;160.38;45.85;;;11.00;99.90;;;;;;5050200;28;20368;-82
2021/11/17 12:17:10;;;;;;;202.88;51.85;;;11.00;99.90;;;;;;5050959;28;20104;-82
2021/11/17 12:19:41;;;;;;;216.35;51.28;;;11.00;99.90;;;;;;5049560;28;20021;-81
2021/11/17 12:22:14;;;;;;;192.18;51.67;;;11.10;99.90;;;;;;5050693;28;20116;-81
2021/11/17 12:24:51;;;;;;;203.05;53.95;;;11.10;99.90;;;;;;5051994;28;20464;-82
2021/11/17 12:27:32;;;;;;;199.82;54.58;;;11.10;99.90;;;;;;5048433;28;20029;-83
2021/11/17 12:30:19;;;;;;;202.57;52.72;;;11.10;99.90;;;;;;5048745;28;20040;-82
2021/11/17 12:33:10;;;;;;;193.18;50.38;;;11.10;99.90;;;;;;5047314;28;20120;-87
2021/11/17 12:35:40;;;;;;;193.18;51.65;;;11.10;99.90;;;;;;5042557;28;20029;-88
2021/11/17 12:38:15;;;;;;;193.43;54.60;;;11.10;99.90;;;;;;5055146;28;20009;-84
2021/11/17 12:40:48;;;;;;;188.88;51.80;;;11.20;99.90;;;;;;5052376;28;20025;-79
2021/11/17 12:43:41;;;;;;;187.20;51.40;;;11.20;99.90;;;;;;5059750;28;20020;-89
2021/11/17 12:46:24;;;;;;;184.23;52.95;;;11.20;99.90;;;;;;5073227;28;20492;-85
2021/11/17 12:48:55;;;;;;;189.63;51.92;;;11.30;99.90;;;;;;5069825;28;20090;-87
2021/11/17 12:51:24;;;;;;;172.18;49.90;;;11.30;99.90;;;;;;5069470;28;20145;-84
2021/11/17 12:54:03;;;;;;;181.82;51.70;;;11.30;99.90;;;;;;5055463;28;20079;-78
2021/11/17 12:56:39;;;;;;;181.43;51.55;;;11.30;99.90;;;;;;5055647;28;20643;-80
2021/11/17 12:59:32;;;;;;;175.63;50.50;;;11.30;99.90;;;;;;5049414;28;20078;-80
2021/11/17 13:02:02;;;;;;;168.55;51.45;;;11.40;99.90;;;;;;5050825;28;20040;-79
2021/11/17 13:04:47;;;;;;;156.77;48.25;;;11.40;99.90;;;;;;5052464;28;20155;-79
2021/11/17 13:07:49;;;;;;;152.05;48.65;;;11.40;99.90;;;;;;5052688;28;20078;-79
2021/11/17 13:10:41;;;;;;;173.00;52.42;;;11.50;99.90;;;;;;5058187;28;20397;-80
2021/11/17 13:13:44;;;;;;;166.85;48.95;;;11.50;99.90;;;;;;5040878;28;20154;-82
2021/11/17 13:16:30;;;;;;;156.13;47.88;;;11.50;99.90;;;;;;5054634;28;20048;-80
2021/11/17 13:19:00;;;;;;;126.20;43.85;;;11.60;99.90;;;;;;5071548;28;20031;-79
2021/11/17 13:21:29;;;;;;;133.48;46.15;;;11.60;99.90;;;;;;5056273;28;20033;-80
2021/11/17 13:24:07;;;;;;;138.90;47.22;;;11.70;99.90;;;;;;5054591;28;20013;-77
2021/11/17 13:26:36;;;;;;;137.90;45.60;;;11.80;99.90;;;;;;5054677;28;20473;-77
2021/11/17 13:29:28;;;;;;;155.40;49.28;;;11.80;99.90;;;;;;5053627;28;20028;-77
2021/11/17 13:32:03;;;;;;;134.60;47.33;;;11.80;99.90;;;;;;5045425;28;20164;-77
2021/11/17 13:34:42;;;;;;;139.63;43.88;;;11.80;99.90;;;;;;5047302;28;20461;-78
2021/11/17 13:37:37;;;;;;;134.50;47.58;;;11.80;99.90;;;;;;5047942;28;20587;-88
2021/11/17 13:40:08;;;;;;;144.73;45.78;;;11.90;99.90;;;;;;5050052;28;20121;-87
2021/11/17 13:42:34;;;;;;;118.40;44.90;;;11.90;99.90;;;;;;5047237;28;20033;-87
2021/11/17 13:45:03;;;;;;;121.60;46.25;;;12.00;99.90;;;;;;5044574;28;20025;-90
2021/11/17 13:47:30;;;;;;;121.32;46.13;;;12.00;99.90;;;;;;5046165;28;20402;-86
2021/11/17 13:49:58;;;;;;;121.90;42.88;;;12.10;99.90;;;;;;5047166;28;20062;-93
2021/11/17 13:52:28;;;;;;;115.15;43.30;;;12.10;99.90;;;;;;5055973;28;20056;-92
2021/11/17 13:54:54;;;;;;;124.35;43.28;;;12.00;99.90;;;;;;5051151;28;20024;-82
2021/11/17 13:57:20;;;;;;;107.90;42.95;;;12.00;99.90;;;;;;5046978;28;20108;-80
2021/11/17 13:59:46;;;;;;;106.40;40.85;;;12.10;99.90;;;;;;5059835;28;20493;-79
2021/11/17 14:02:12;;;;;;;108.07;39.70;;;12.10;99.90;;;;;;5058652;28;20036;-79
2021/11/17 14:04:38;;;;;;;105.55;40.33;;;12.10;99.90;;;;;;5055283;28;20025;-79
2021/11/17 14:07:05;;;;;;;114.13;41.65;;;12.10;99.90;;;;;;5053475;28;20033;-79
2021/11/17 14:09:31;;;;;;;117.63;45.00;;;12.10;99.90;;;;;;5050900;28;20040;-79
2021/11/17 14:11:58;;;;;;;120.85;43.28;;;12.10;99.90;;;;;;5052504;28;20052;-81
2021/11/17 14:14:24;;;;;;;112.00;42.30;;;12.20;99.90;;;;;;5044523;28;20026;-80
2021/11/17 14:16:50;;;;;;;122.28;47.00;;;12.20;99.90;;;;;;5047530;28;20021;-80
2021/11/17 14:19:16;;;;;;;109.25;42.85;;;12.20;99.90;;;;;;5070128;28;20023;-80
2021/11/17 14:21:42;;;;;;;121.70;46.20;;;12.10;99.90;;;;;;5062966;28;20041;-81
2021/11/17 14:24:08;;;;;;;119.88;44.03;;;12.10;99.90;;;;;;5065005;28;20096;-80
2021/11/17 14:26:35;;;;;;;126.40;43.33;;;12.10;99.90;;;;;;5045924;28;20053;-80
2021/11/17 14:29:11;;;;;;;126.70;48.38;;;12.00;99.90;;;;;;5052700;28;20351;-80
2021/11/17 14:31:46;;;;;;;124.88;46.78;;;12.00;99.90;;;;;;5052494;28;20124;-80
2021/11/17 14:34:12;;;;;;;126.75;46.55;;;12.10;99.90;;;;;;5053131;28;20025;-79
2021/11/17 14:36:43;;;;;;;129.82;46.65;;;12.10;99.90;;;;;;5053433;28;20082;-80
2021/11/17 14:39:10;;;;;;;122.13;46.42;;;12.00;99.90;;;;;;5052225;28;20470;-80
2021/11/17 14:41:36;;;;;;;128.90;47.47;;;11.90;99.90;;;;;;5047354;28;20037;-80
2021/11/17 14:44:03;;;;;;;124.90;45.50;;;11.90;99.90;;;;;;5045522;28;20535;-81
2021/11/17 14:46:28;;;;;;;115.13;45.35;;;11.90;99.90;;;;;;5044644;28;20023;-80
2021/11/17 14:48:54;;;;;;;126.38;46.38;;;11.90;99.90;;;;;;5047120;28;20024;-79
2021/11/17 14:51:20;;;;;;;126.10;47.00;;;11.90;99.90;;;;;;5046522;28;20060;-81
2021/11/17 14:53:48;;;;;;;108.20;41.78;;;11.90;99.90;;;;;;5045170;28;20024;-81
2021/11/17 14:56:14;;;;;;;129.90;46.80;;;11.90;99.90;;;;;;5055767;28;20029;-81
2021/11/17 14:58:41;;;;;;;125.88;45.63;;;11.80;99.90;;;;;;5052216;28;20029;-80
2021/11/17 15:01:10;;;;;;;130.45;47.22;;;11.70;99.90;;;;;;5046913;28;20107;-81
2021/11/17 15:03:36;;;;;;;131.10;47.28;;;11.80;99.90;;;;;;5044829;28;20086;-80
2021/11/17 15:06:02;;;;;;;125.07;45.20;;;11.70;99.90;;;;;;5052200;28;20025;-80
2021/11/17 15:08:28;;;;;;;126.50;45.72;;;11.70;99.90;;;;;;5052847;28;20029;-80
2021/11/17 15:10:54;;;;;;;136.20;48.53;;;11.70;99.90;;;;;;5053281;28;20496;-81
2021/11/17 15:13:20;;;;;;;122.78;45.78;;;11.70;99.90;;;;;;5053604;28;20058;-81
2021/11/17 15:15:47;;;;;;;125.97;45.35;;;11.60;99.90;;;;;;5039806;28;20093;-80
2021/11/17 15:18:20;;;;;;;113.55;42.58;;;11.60;99.90;;;;;;5049010;28;20530;-80
2021/11/17 15:20:46;;;;;;;106.93;39.10;;;11.60;99.90;;;;;;5066090;28;20059;-78
2021/11/17 15:23:12;;;;;;;107.05;39.60;;;11.60;99.90;;;;;;5055134;28;20540;-78
2021/11/17 15:25:41;;;;;;;87.47;36.22;;;11.60;99.90;;;;;;5069384;28;20111;-78
2021/11/17 15:28:16;;;;;;;90.65;37.20;;;11.60;99.90;;;;;;5062696;28;20028;-79
2021/11/17 15:30:50;;;;;;;89.53;34.15;;;11.50;99.90;;;;;;5045071;28;20042;-78
2021/11/17 15:33:16;;;;;;;99.10;38.20;;;11.50;99.90;;;;;;5052546;28;20028;-78
2021/11/17 15:35:43;;;;;;;92.75;33.50;;;11.50;99.90;;;;;;5049720;28;20423;-78
2021/11/17 15:38:10;;;;;;;87.00;32.03;;;11.50;99.90;;;;;;5050193;28;20408;-78